sensor_id;sensor_type;location;lat;lon;timestamp;P1;P2;P0
72023;PMS5003;59889;50.700;5.440;2022-12-05T00:00:44;10;10;
72023;PMS5003;59889;50.700;5.440;2022-12-05T00:03:10;9;9;
72023;PMS5003;59889;50.700;5.440;2022-12-05T00:05:38;10;9;
72023;PMS5003;59889;50.700;5.440;2022-12-05T00:08:00;9;9;
72023;PMS5003;59889;50.700;5.440;2022-12-05T00:10:25;8;8;
72023;PMS5003;59889;50.700;5.440;2022-12-05T00:12:50;7;7;
72023;PMS5003;59889;50.700;5.440;2022-12-05T00:15:15;8;8;
72023;PMS5003;59889;50.700;5.440;2022-12-05T00:17:40;8;8;
72023;PMS5003;59889;50.700;5.440;2022-12-05T00:20:06;9;9;
72023;PMS5003;59889;50.700;5.440;2022-12-05T00:22:30;7;7;
72023;PMS5003;59889;50.700;5.440;2022-12-05T00:24:55;9;9;
72023;PMS5003;59889;50.700;5.440;2022-12-05T00:27:21;12;10;
72023;PMS5003;59889;50.700;5.440;2022-12-05T00:29:46;9;6;
72023;PMS5003;59889;50.700;5.440;2022-12-05T00:32:11;10;10;
72023;PMS5003;59889;50.700;5.440;2022-12-05T00:34:36;8;8;
72023;PMS5003;59889;50.700;5.440;2022-12-05T00:37:01;8;8;
72023;PMS5003;59889;50.700;5.440;2022-12-05T00:39:26;7;7;
72023;PMS5003;59889;50.700;5.440;2022-12-05T00:41:51;9;8;
72023;PMS5003;59889;50.700;5.440;2022-12-05T00:44:16;10;9;
72023;PMS5003;59889;50.700;5.440;2022-12-05T00:46:41;9;8;
72023;PMS5003;59889;50.700;5.440;2022-12-05T00:49:07;10;8;
72023;PMS5003;59889;50.700;5.440;2022-12-05T00:51:33;8;7;
72023;PMS5003;59889;50.700;5.440;2022-12-05T00:53:57;10;9;
72023;PMS5003;59889;50.700;5.440;2022-12-05T00:56:23;7;6;
72023;PMS5003;59889;50.700;5.440;2022-12-05T00:58:47;8;8;
72023;PMS5003;59889;50.700;5.440;2022-12-05T01:01:13;7;7;
72023;PMS5003;59889;50.700;5.440;2022-12-05T01:03:37;7;6;
72023;PMS5003;59889;50.700;5.440;2022-12-05T01:06:03;8;8;
72023;PMS5003;59889;50.700;5.440;2022-12-05T01:08:27;8;8;
72023;PMS5003;59889;50.700;5.440;2022-12-05T01:10:53;8;8;
72023;PMS5003;59889;50.700;5.440;2022-12-05T01:13:18;9;9;
72023;PMS5003;59889;50.700;5.440;2022-12-05T01:15:43;8;7;
72023;PMS5003;59889;50.700;5.440;2022-12-05T01:18:08;9;8;
72023;PMS5003;59889;50.700;5.440;2022-12-05T01:20:33;7;7;
72023;PMS5003;59889;50.700;5.440;2022-12-05T01:22:59;7;7;
72023;PMS5003;59889;50.700;5.440;2022-12-05T01:25:24;10;9;
72023;PMS5003;59889;50.700;5.440;2022-12-05T01:27:50;6;6;
72023;PMS5003;59889;50.700;5.440;2022-12-05T01:30:15;8;8;
72023;PMS5003;59889;50.700;5.440;2022-12-05T01:32:40;10;8;
72023;PMS5003;59889;50.700;5.440;2022-12-05T01:35:05;8;7;
72023;PMS5003;59889;50.700;5.440;2022-12-05T01:37:30;8;8;
72023;PMS5003;59889;50.700;5.440;2022-12-05T01:39:55;6;6;
72023;PMS5003;59889;50.700;5.440;2022-12-05T01:42:21;8;7;
72023;PMS5003;59889;50.700;5.440;2022-12-05T01:47:11;8;7;
72023;PMS5003;59889;50.700;5.440;2022-12-05T01:49:37;7;6;
72023;PMS5003;59889;50.700;5.440;2022-12-05T01:52:02;7;6;
72023;PMS5003;59889;50.700;5.440;2022-12-05T01:54:27;9;8;
72023;PMS5003;59889;50.700;5.440;2022-12-05T01:56:53;8;7;
72023;PMS5003;59889;50.700;5.440;2022-12-05T01:59:17;9;8;
72023;PMS5003;59889;50.700;5.440;2022-12-05T02:01:42;8;8;
72023;PMS5003;59889;50.700;5.440;2022-12-05T02:04:07;9;7;
72023;PMS5003;59889;50.700;5.440;2022-12-05T02:06:32;7;7;
72023;PMS5003;59889;50.700;5.440;2022-12-05T02:08:57;7;6;
72023;PMS5003;59889;50.700;5.440;2022-12-05T02:11:23;6;6;
72023;PMS5003;59889;50.700;5.440;2022-12-05T02:13:54;9;8;
72023;PMS5003;59889;50.700;5.440;2022-12-05T02:16:15;6;6;
72023;PMS5003;59889;50.700;5.440;2022-12-05T02:18:41;6;6;
72023;PMS5003;59889;50.700;5.440;2022-12-05T02:21:06;8;7;
72023;PMS5003;59889;50.700;5.440;2022-12-05T02:23:35;7;7;
72023;PMS5003;59889;50.700;5.440;2022-12-05T02:25:59;7;7;
72023;PMS5003;59889;50.700;5.440;2022-12-05T02:28:25;7;7;
72023;PMS5003;59889;50.700;5.440;2022-12-05T02:30:44;9;8;
72023;PMS5003;59889;50.700;5.440;2022-12-05T02:33:10;8;7;
72023;PMS5003;59889;50.700;5.440;2022-12-05T02:35:38;8;8;
72023;PMS5003;59889;50.700;5.440;2022-12-05T02:38:01;7;7;
72023;PMS5003;59889;50.700;5.440;2022-12-05T02:40:25;8;8;
72023;PMS5003;59889;50.700;5.440;2022-12-05T02:42:50;10;9;
72023;PMS5003;59889;50.700;5.440;2022-12-05T02:45:14;7;7;
72023;PMS5003;59889;50.700;5.440;2022-12-05T02:47:40;6;6;
72023;PMS5003;59889;50.700;5.440;2022-12-05T02:50:05;8;8;
72023;PMS5003;59889;50.700;5.440;2022-12-05T02:52:29;9;8;
72023;PMS5003;59889;50.700;5.440;2022-12-05T02:54:54;9;8;
72023;PMS5003;59889;50.700;5.440;2022-12-05T02:57:19;8;8;
72023;PMS5003;59889;50.700;5.440;2022-12-05T02:59:45;8;7;
72023;PMS5003;59889;50.700;5.440;2022-12-05T03:04:35;7;7;
72023;PMS5003;59889;50.700;5.440;2022-12-05T03:07:01;5;5;
72023;PMS5003;59889;50.700;5.440;2022-12-05T03:09:26;7;7;
72023;PMS5003;59889;50.700;5.440;2022-12-05T03:11:51;6;5;
72023;PMS5003;59889;50.700;5.440;2022-12-05T03:14:16;6;6;
72023;PMS5003;59889;50.700;5.440;2022-12-05T03:16:42;6;6;
72023;PMS5003;59889;50.700;5.440;2022-12-05T03:19:08;6;6;
72023;PMS5003;59889;50.700;5.440;2022-12-05T03:21:32;6;6;
72023;PMS5003;59889;50.700;5.440;2022-12-05T03:23:57;6;6;
72023;PMS5003;59889;50.700;5.440;2022-12-05T03:26:25;5;5;
72023;PMS5003;59889;50.700;5.440;2022-12-05T03:28:48;8;7;
72023;PMS5003;59889;50.700;5.440;2022-12-05T03:31:12;6;6;
72023;PMS5003;59889;50.700;5.440;2022-12-05T03:33:37;7;7;
72023;PMS5003;59889;50.700;5.440;2022-12-05T03:36:02;7;6;
72023;PMS5003;59889;50.700;5.440;2022-12-05T03:38:28;6;6;
72023;PMS5003;59889;50.700;5.440;2022-12-05T03:40:52;6;6;
72023;PMS5003;59889;50.700;5.440;2022-12-05T03:43:17;8;8;
72023;PMS5003;59889;50.700;5.440;2022-12-05T03:45:42;10;7;
72023;PMS5003;59889;50.700;5.440;2022-12-05T03:48:09;6;5;
72023;PMS5003;59889;50.700;5.440;2022-12-05T03:50:32;8;8;
72023;PMS5003;59889;50.700;5.440;2022-12-05T03:52:59;8;8;
72023;PMS5003;59889;50.700;5.440;2022-12-05T03:55:33;7;7;
72023;PMS5003;59889;50.700;5.440;2022-12-05T03:57:49;7;7;
72023;PMS5003;59889;50.700;5.440;2022-12-05T04:00:13;5;5;
72023;PMS5003;59889;50.700;5.440;2022-12-05T04:02:39;6;5;
72023;PMS5003;59889;50.700;5.440;2022-12-05T04:05:04;7;7;
72023;PMS5003;59889;50.700;5.440;2022-12-05T04:07:28;6;6;
72023;PMS5003;59889;50.700;5.440;2022-12-05T04:09:54;6;6;
72023;PMS5003;59889;50.700;5.440;2022-12-05T04:12:20;6;5;
72023;PMS5003;59889;50.700;5.440;2022-12-05T04:14:44;6;6;
72023;PMS5003;59889;50.700;5.440;2022-12-05T04:17:09;5;5;
72023;PMS5003;59889;50.700;5.440;2022-12-05T04:19:35;7;5;
72023;PMS5003;59889;50.700;5.440;2022-12-05T04:21:58;7;6;
72023;PMS5003;59889;50.700;5.440;2022-12-05T04:24:25;6;6;
72023;PMS5003;59889;50.700;5.440;2022-12-05T04:26:51;9;8;
72023;PMS5003;59889;50.700;5.440;2022-12-05T04:29:16;9;6;
72023;PMS5003;59889;50.700;5.440;2022-12-05T04:31:40;10;8;
72023;PMS5003;59889;50.700;5.440;2022-12-05T04:34:05;7;7;
72023;PMS5003;59889;50.700;5.440;2022-12-05T04:36:30;7;7;
72023;PMS5003;59889;50.700;5.440;2022-12-05T04:38:56;6;5;
72023;PMS5003;59889;50.700;5.440;2022-12-05T04:41:20;6;6;
72023;PMS5003;59889;50.700;5.440;2022-12-05T04:43:44;5;5;
72023;PMS5003;59889;50.700;5.440;2022-12-05T04:46:10;6;6;
72023;PMS5003;59889;50.700;5.440;2022-12-05T04:48:36;6;5;
72023;PMS5003;59889;50.700;5.440;2022-12-05T04:51:00;8;8;
72023;PMS5003;59889;50.700;5.440;2022-12-05T04:53:27;15;15;
72023;PMS5003;59889;50.700;5.440;2022-12-05T04:55:51;15;14;
72023;PMS5003;59889;50.700;5.440;2022-12-05T04:58:19;15;13;
72023;PMS5003;59889;50.700;5.440;2022-12-05T05:00:44;14;14;
72023;PMS5003;59889;50.700;5.440;2022-12-05T05:03:07;11;11;
72023;PMS5003;59889;50.700;5.440;2022-12-05T05:05:32;12;11;
72023;PMS5003;59889;50.700;5.440;2022-12-05T05:07:57;14;14;
72023;PMS5003;59889;50.700;5.440;2022-12-05T05:10:26;11;10;
72023;PMS5003;59889;50.700;5.440;2022-12-05T05:12:47;12;11;
72023;PMS5003;59889;50.700;5.440;2022-12-05T05:15:13;13;12;
72023;PMS5003;59889;50.700;5.440;2022-12-05T05:17:38;14;12;
72023;PMS5003;59889;50.700;5.440;2022-12-05T05:20:04;10;9;
72023;PMS5003;59889;50.700;5.440;2022-12-05T05:22:29;13;12;
72023;PMS5003;59889;50.700;5.440;2022-12-05T05:24:54;13;13;
72023;PMS5003;59889;50.700;5.440;2022-12-05T05:27:19;13;12;
72023;PMS5003;59889;50.700;5.440;2022-12-05T05:29:45;15;14;
72023;PMS5003;59889;50.700;5.440;2022-12-05T05:32:10;10;10;
72023;PMS5003;59889;50.700;5.440;2022-12-05T05:34:35;15;15;
72023;PMS5003;59889;50.700;5.440;2022-12-05T05:37:00;13;11;
72023;PMS5003;59889;50.700;5.440;2022-12-05T05:39:25;14;13;
72023;PMS5003;59889;50.700;5.440;2022-12-05T05:41:50;14;13;
72023;PMS5003;59889;50.700;5.440;2022-12-05T05:44:16;15;13;
72023;PMS5003;59889;50.700;5.440;2022-12-05T05:46:41;12;11;
72023;PMS5003;59889;50.700;5.440;2022-12-05T05:49:06;11;10;
72023;PMS5003;59889;50.700;5.440;2022-12-05T05:51:32;14;14;
72023;PMS5003;59889;50.700;5.440;2022-12-05T05:53:57;13;11;
72023;PMS5003;59889;50.700;5.440;2022-12-05T05:56:22;12;11;
72023;PMS5003;59889;50.700;5.440;2022-12-05T05:58:54;11;10;
72023;PMS5003;59889;50.700;5.440;2022-12-05T06:01:13;12;12;
72023;PMS5003;59889;50.700;5.440;2022-12-05T06:03:38;14;13;
72023;PMS5003;59889;50.700;5.440;2022-12-05T06:06:03;11;10;
72023;PMS5003;59889;50.700;5.440;2022-12-05T06:08:28;10;10;
72023;PMS5003;59889;50.700;5.440;2022-12-05T06:10:53;11;11;
72023;PMS5003;59889;50.700;5.440;2022-12-05T06:13:18;12;11;
72023;PMS5003;59889;50.700;5.440;2022-12-05T06:15:44;11;11;
72023;PMS5003;59889;50.700;5.440;2022-12-05T06:18:09;13;13;
72023;PMS5003;59889;50.700;5.440;2022-12-05T06:20:34;13;12;
72023;PMS5003;59889;50.700;5.440;2022-12-05T06:22:59;11;11;
72023;PMS5003;59889;50.700;5.440;2022-12-05T06:25:24;12;12;
72023;PMS5003;59889;50.700;5.440;2022-12-05T06:27:50;11;11;
72023;PMS5003;59889;50.700;5.440;2022-12-05T06:30:15;13;12;
72023;PMS5003;59889;50.700;5.440;2022-12-05T06:32:40;13;12;
72023;PMS5003;59889;50.700;5.440;2022-12-05T06:35:05;11;11;
72023;PMS5003;59889;50.700;5.440;2022-12-05T06:37:30;14;14;
72023;PMS5003;59889;50.700;5.440;2022-12-05T06:39:56;16;14;
72023;PMS5003;59889;50.700;5.440;2022-12-05T06:42:21;14;14;
72023;PMS5003;59889;50.700;5.440;2022-12-05T06:44:46;12;11;
72023;PMS5003;59889;50.700;5.440;2022-12-05T06:47:12;13;12;
72023;PMS5003;59889;50.700;5.440;2022-12-05T06:49:37;13;12;
72023;PMS5003;59889;50.700;5.440;2022-12-05T06:52:02;13;11;
72023;PMS5003;59889;50.700;5.440;2022-12-05T06:54:27;13;12;
72023;PMS5003;59889;50.700;5.440;2022-12-05T06:56:52;10;10;
72023;PMS5003;59889;50.700;5.440;2022-12-05T06:59:18;14;14;
72023;PMS5003;59889;50.700;5.440;2022-12-05T07:01:43;12;12;
72023;PMS5003;59889;50.700;5.440;2022-12-05T07:04:10;12;12;
72023;PMS5003;59889;50.700;5.440;2022-12-05T07:06:34;15;13;
72023;PMS5003;59889;50.700;5.440;2022-12-05T07:08:59;14;13;
72023;PMS5003;59889;50.700;5.440;2022-12-05T07:11:25;11;11;
72023;PMS5003;59889;50.700;5.440;2022-12-05T07:13:50;11;11;
72023;PMS5003;59889;50.700;5.440;2022-12-05T07:16:15;12;12;
72023;PMS5003;59889;50.700;5.440;2022-12-05T07:18:40;13;12;
72023;PMS5003;59889;50.700;5.440;2022-12-05T07:21:06;13;11;
72023;PMS5003;59889;50.700;5.440;2022-12-05T07:23:31;10;10;
72023;PMS5003;59889;50.700;5.440;2022-12-05T07:25:57;12;11;
72023;PMS5003;59889;50.700;5.440;2022-12-05T07:28:23;13;11;
72023;PMS5003;59889;50.700;5.440;2022-12-05T07:30:48;13;13;
72023;PMS5003;59889;50.700;5.440;2022-12-05T07:33:13;14;12;
72023;PMS5003;59889;50.700;5.440;2022-12-05T07:35:38;10;9;
72023;PMS5003;59889;50.700;5.440;2022-12-05T07:38:03;13;12;
72023;PMS5003;59889;50.700;5.440;2022-12-05T07:40:28;12;12;
72023;PMS5003;59889;50.700;5.440;2022-12-05T07:42:53;10;10;
72023;PMS5003;59889;50.700;5.440;2022-12-05T07:45:18;13;13;
72023;PMS5003;59889;50.700;5.440;2022-12-05T07:47:44;11;10;
72023;PMS5003;59889;50.700;5.440;2022-12-05T07:50:09;14;12;
72023;PMS5003;59889;50.700;5.440;2022-12-05T07:52:34;16;15;
72023;PMS5003;59889;50.700;5.440;2022-12-05T07:55:00;11;11;
72023;PMS5003;59889;50.700;5.440;2022-12-05T07:57:25;10;9;
72023;PMS5003;59889;50.700;5.440;2022-12-05T07:59:50;14;12;
72023;PMS5003;59889;50.700;5.440;2022-12-05T08:02:15;11;11;
72023;PMS5003;59889;50.700;5.440;2022-12-05T08:04:41;12;12;
72023;PMS5003;59889;50.700;5.440;2022-12-05T08:07:08;12;11;
72023;PMS5003;59889;50.700;5.440;2022-12-05T08:09:31;11;10;
72023;PMS5003;59889;50.700;5.440;2022-12-05T08:11:57;11;11;
72023;PMS5003;59889;50.700;5.440;2022-12-05T08:14:22;12;11;
72023;PMS5003;59889;50.700;5.440;2022-12-05T08:16:47;12;11;
72023;PMS5003;59889;50.700;5.440;2022-12-05T08:19:12;11;11;
72023;PMS5003;59889;50.700;5.440;2022-12-05T08:21:38;15;15;
72023;PMS5003;59889;50.700;5.440;2022-12-05T08:24:03;12;11;
72023;PMS5003;59889;50.700;5.440;2022-12-05T08:26:29;13;13;
72023;PMS5003;59889;50.700;5.440;2022-12-05T08:28:55;14;12;
72023;PMS5003;59889;50.700;5.440;2022-12-05T08:31:19;13;12;
72023;PMS5003;59889;50.700;5.440;2022-12-05T08:33:44;11;11;
72023;PMS5003;59889;50.700;5.440;2022-12-05T08:36:10;13;13;
72023;PMS5003;59889;50.700;5.440;2022-12-05T08:38:34;11;10;
72023;PMS5003;59889;50.700;5.440;2022-12-05T08:40:59;12;12;
72023;PMS5003;59889;50.700;5.440;2022-12-05T08:43:25;13;11;
72023;PMS5003;59889;50.700;5.440;2022-12-05T08:45:51;13;13;
72023;PMS5003;59889;50.700;5.440;2022-12-05T08:48:15;15;12;
72023;PMS5003;59889;50.700;5.440;2022-12-05T08:50:40;12;12;
72023;PMS5003;59889;50.700;5.440;2022-12-05T08:53:05;11;11;
72023;PMS5003;59889;50.700;5.440;2022-12-05T08:55:32;13;13;
72023;PMS5003;59889;50.700;5.440;2022-12-05T08:57:56;14;13;
72023;PMS5003;59889;50.700;5.440;2022-12-05T09:00:21;17;13;
72023;PMS5003;59889;50.700;5.440;2022-12-05T09:02:48;14;12;
72023;PMS5003;59889;50.700;5.440;2022-12-05T09:05:12;11;11;
72023;PMS5003;59889;50.700;5.440;2022-12-05T09:07:37;13;12;
72023;PMS5003;59889;50.700;5.440;2022-12-05T09:10:03;13;13;
72023;PMS5003;59889;50.700;5.440;2022-12-05T09:12:27;15;13;
72023;PMS5003;59889;50.700;5.440;2022-12-05T09:14:53;12;12;
72023;PMS5003;59889;50.700;5.440;2022-12-05T09:17:18;12;11;
72023;PMS5003;59889;50.700;5.440;2022-12-05T09:19:43;13;12;
72023;PMS5003;59889;50.700;5.440;2022-12-05T09:22:08;12;12;
72023;PMS5003;59889;50.700;5.440;2022-12-05T09:24:34;10;10;
72023;PMS5003;59889;50.700;5.440;2022-12-05T09:26:59;13;13;
72023;PMS5003;59889;50.700;5.440;2022-12-05T09:29:24;13;11;
72023;PMS5003;59889;50.700;5.440;2022-12-05T09:31:49;12;12;
72023;PMS5003;59889;50.700;5.440;2022-12-05T09:34:14;15;13;
72023;PMS5003;59889;50.700;5.440;2022-12-05T09:36:39;13;13;
72023;PMS5003;59889;50.700;5.440;2022-12-05T09:39:05;12;12;
72023;PMS5003;59889;50.700;5.440;2022-12-05T09:41:35;12;11;
72023;PMS5003;59889;50.700;5.440;2022-12-05T09:43:57;14;13;
72023;PMS5003;59889;50.700;5.440;2022-12-05T09:46:24;15;15;
72023;PMS5003;59889;50.700;5.440;2022-12-05T09:48:46;13;12;
72023;PMS5003;59889;50.700;5.440;2022-12-05T09:51:11;14;12;
72023;PMS5003;59889;50.700;5.440;2022-12-05T09:53:36;13;12;
72023;PMS5003;59889;50.700;5.440;2022-12-05T09:56:03;13;13;
72023;PMS5003;59889;50.700;5.440;2022-12-05T09:58:29;12;12;
72023;PMS5003;59889;50.700;5.440;2022-12-05T10:00:54;13;12;
72023;PMS5003;59889;50.700;5.440;2022-12-05T10:03:20;13;13;
72023;PMS5003;59889;50.700;5.440;2022-12-05T10:05:45;12;11;
72023;PMS5003;59889;50.700;5.440;2022-12-05T10:08:11;14;12;
72023;PMS5003;59889;50.700;5.440;2022-12-05T10:10:38;15;13;
72023;PMS5003;59889;50.700;5.440;2022-12-05T10:13:06;10;10;
72023;PMS5003;59889;50.700;5.440;2022-12-05T10:15:27;13;11;
72023;PMS5003;59889;50.700;5.440;2022-12-05T10:17:51;11;11;
72023;PMS5003;59889;50.700;5.440;2022-12-05T10:20:15;13;12;
72023;PMS5003;59889;50.700;5.440;2022-12-05T10:22:42;13;12;
72023;PMS5003;59889;50.700;5.440;2022-12-05T10:25:05;15;14;
72023;PMS5003;59889;50.700;5.440;2022-12-05T10:27:31;13;11;
72023;PMS5003;59889;50.700;5.440;2022-12-05T10:29:57;13;13;
72023;PMS5003;59889;50.700;5.440;2022-12-05T10:32:23;13;10;
72023;PMS5003;59889;50.700;5.440;2022-12-05T10:34:47;10;10;
72023;PMS5003;59889;50.700;5.440;2022-12-05T10:37:14;13;13;
72023;PMS5003;59889;50.700;5.440;2022-12-05T10:39:37;14;12;
72023;PMS5003;59889;50.700;5.440;2022-12-05T10:42:03;19;14;
72023;PMS5003;59889;50.700;5.440;2022-12-05T10:44:29;13;11;
72023;PMS5003;59889;50.700;5.440;2022-12-05T10:46:54;14;12;
72023;PMS5003;59889;50.700;5.440;2022-12-05T10:49:19;13;13;
72023;PMS5003;59889;50.700;5.440;2022-12-05T10:51:44;16;13;
72023;PMS5003;59889;50.700;5.440;2022-12-05T10:54:13;12;11;
72023;PMS5003;59889;50.700;5.440;2022-12-05T10:56:36;11;11;
72023;PMS5003;59889;50.700;5.440;2022-12-05T10:59:00;12;12;
72023;PMS5003;59889;50.700;5.440;2022-12-05T11:01:25;15;13;
72023;PMS5003;59889;50.700;5.440;2022-12-05T11:03:54;12;12;
72023;PMS5003;59889;50.700;5.440;2022-12-05T11:06:16;13;13;
72023;PMS5003;59889;50.700;5.440;2022-12-05T11:08:40;15;12;
72023;PMS5003;59889;50.700;5.440;2022-12-05T11:11:06;17;17;
72023;PMS5003;59889;50.700;5.440;2022-12-05T11:13:32;13;11;
72023;PMS5003;59889;50.700;5.440;2022-12-05T11:15:56;13;12;
72023;PMS5003;59889;50.700;5.440;2022-12-05T11:18:25;10;10;
72023;PMS5003;59889;50.700;5.440;2022-12-05T11:20:47;13;13;
72023;PMS5003;59889;50.700;5.440;2022-12-05T11:23:21;17;16;
72023;PMS5003;59889;50.700;5.440;2022-12-05T11:25:38;13;12;
72023;PMS5003;59889;50.700;5.440;2022-12-05T11:30:28;14;13;
72023;PMS5003;59889;50.700;5.440;2022-12-05T11:35:21;15;14;
72023;PMS5003;59889;50.700;5.440;2022-12-05T11:37:45;12;11;
72023;PMS5003;59889;50.700;5.440;2022-12-05T11:40:14;12;12;
72023;PMS5003;59889;50.700;5.440;2022-12-05T11:42:36;13;13;
72023;PMS5003;59889;50.700;5.440;2022-12-05T11:45:03;15;13;
72023;PMS5003;59889;50.700;5.440;2022-12-05T11:47:30;13;13;
72023;PMS5003;59889;50.700;5.440;2022-12-05T11:49:57;13;12;
72023;PMS5003;59889;50.700;5.440;2022-12-05T11:52:19;12;11;
72023;PMS5003;59889;50.700;5.440;2022-12-05T11:54:45;10;10;
72023;PMS5003;59889;50.700;5.440;2022-12-05T11:57:08;18;14;
72023;PMS5003;59889;50.700;5.440;2022-12-05T11:59:36;13;13;
72023;PMS5003;59889;50.700;5.440;2022-12-05T12:01:57;13;12;
72023;PMS5003;59889;50.700;5.440;2022-12-05T12:04:25;13;11;
72023;PMS5003;59889;50.700;5.440;2022-12-05T12:06:49;14;13;
72023;PMS5003;59889;50.700;5.440;2022-12-05T12:09:17;13;12;
72023;PMS5003;59889;50.700;5.440;2022-12-05T12:11:40;13;12;
72023;PMS5003;59889;50.700;5.440;2022-12-05T12:14:05;15;14;
72023;PMS5003;59889;50.700;5.440;2022-12-05T12:16:32;13;13;
72023;PMS5003;59889;50.700;5.440;2022-12-05T12:18:58;13;13;
72023;PMS5003;59889;50.700;5.440;2022-12-05T12:21:21;13;13;
72023;PMS5003;59889;50.700;5.440;2022-12-05T12:23:49;11;10;
72023;PMS5003;59889;50.700;5.440;2022-12-05T12:26:10;16;14;
72023;PMS5003;59889;50.700;5.440;2022-12-05T12:28:37;15;12;
72023;PMS5003;59889;50.700;5.440;2022-12-05T12:31:03;13;13;
72023;PMS5003;59889;50.700;5.440;2022-12-05T12:33:28;13;12;
72023;PMS5003;59889;50.700;5.440;2022-12-05T12:35:52;14;12;
72023;PMS5003;59889;50.700;5.440;2022-12-05T12:38:20;13;12;
72023;PMS5003;59889;50.700;5.440;2022-12-05T12:40:42;13;12;
72023;PMS5003;59889;50.700;5.440;2022-12-05T12:43:10;12;11;
72023;PMS5003;59889;50.700;5.440;2022-12-05T12:45:40;12;12;
72023;PMS5003;59889;50.700;5.440;2022-12-05T12:48:00;11;11;
72023;PMS5003;59889;50.700;5.440;2022-12-05T12:50:23;18;17;
72023;PMS5003;59889;50.700;5.440;2022-12-05T12:52:56;13;13;
72023;PMS5003;59889;50.700;5.440;2022-12-05T12:55:16;13;13;
72023;PMS5003;59889;50.700;5.440;2022-12-05T12:57:46;11;11;
72023;PMS5003;59889;50.700;5.440;2022-12-05T13:00:09;11;10;
72023;PMS5003;59889;50.700;5.440;2022-12-05T13:02:32;14;14;
72023;PMS5003;59889;50.700;5.440;2022-12-05T13:04:57;11;11;
72023;PMS5003;59889;50.700;5.440;2022-12-05T13:07:21;13;12;
72023;PMS5003;59889;50.700;5.440;2022-12-05T13:09:46;14;12;
72023;PMS5003;59889;50.700;5.440;2022-12-05T13:12:10;12;12;
72023;PMS5003;59889;50.700;5.440;2022-12-05T13:14:35;13;13;
72023;PMS5003;59889;50.700;5.440;2022-12-05T13:17:00;14;14;
72023;PMS5003;59889;50.700;5.440;2022-12-05T13:19:27;19;18;
72023;PMS5003;59889;50.700;5.440;2022-12-05T13:21:52;18;18;
72023;PMS5003;59889;50.700;5.440;2022-12-05T13:24:17;12;12;
72023;PMS5003;59889;50.700;5.440;2022-12-05T13:26:44;14;14;
72023;PMS5003;59889;50.700;5.440;2022-12-05T13:29:13;10;10;
72023;PMS5003;59889;50.700;5.440;2022-12-05T13:31:34;14;13;
72023;PMS5003;59889;50.700;5.440;2022-12-05T13:33:57;15;14;
72023;PMS5003;59889;50.700;5.440;2022-12-05T13:36:23;15;14;
72023;PMS5003;59889;50.700;5.440;2022-12-05T13:38:48;14;13;
72023;PMS5003;59889;50.700;5.440;2022-12-05T13:41:13;16;14;
72023;PMS5003;59889;50.700;5.440;2022-12-05T13:43:39;14;13;
72023;PMS5003;59889;50.700;5.440;2022-12-05T13:46:04;14;13;
72023;PMS5003;59889;50.700;5.440;2022-12-05T13:48:29;14;13;
72023;PMS5003;59889;50.700;5.440;2022-12-05T13:50:55;14;13;
72023;PMS5003;59889;50.700;5.440;2022-12-05T13:53:23;15;14;
72023;PMS5003;59889;50.700;5.440;2022-12-05T14:00:34;16;14;
72023;PMS5003;59889;50.700;5.440;2022-12-05T14:03:01;13;13;
72023;PMS5003;59889;50.700;5.440;2022-12-05T14:05:34;15;14;
72023;PMS5003;59889;50.700;5.440;2022-12-05T14:07:51;14;14;
72023;PMS5003;59889;50.700;5.440;2022-12-05T14:10:19;13;12;
72023;PMS5003;59889;50.700;5.440;2022-12-05T14:12:44;14;13;
72023;PMS5003;59889;50.700;5.440;2022-12-05T14:17:40;15;14;
72023;PMS5003;59889;50.700;5.440;2022-12-05T14:20:01;15;13;
72023;PMS5003;59889;50.700;5.440;2022-12-05T14:22:30;15;15;
72023;PMS5003;59889;50.700;5.440;2022-12-05T14:24:50;13;13;
72023;PMS5003;59889;50.700;5.440;2022-12-05T14:27:14;14;13;
72023;PMS5003;59889;50.700;5.440;2022-12-05T14:29:40;14;13;
72023;PMS5003;59889;50.700;5.440;2022-12-05T14:32:06;14;13;
72023;PMS5003;59889;50.700;5.440;2022-12-05T14:34:29;14;13;
72023;PMS5003;59889;50.700;5.440;2022-12-05T14:36:55;12;12;
72023;PMS5003;59889;50.700;5.440;2022-12-05T14:39:20;13;13;
72023;PMS5003;59889;50.700;5.440;2022-12-05T14:41:44;12;12;
72023;PMS5003;59889;50.700;5.440;2022-12-05T14:44:10;14;13;
72023;PMS5003;59889;50.700;5.440;2022-12-05T14:46:34;13;11;
72023;PMS5003;59889;50.700;5.440;2022-12-05T14:53:50;14;13;
72023;PMS5003;59889;50.700;5.440;2022-12-05T14:56:16;15;14;
72023;PMS5003;59889;50.700;5.440;2022-12-05T14:58:41;14;14;
72023;PMS5003;59889;50.700;5.440;2022-12-05T15:01:06;13;13;
72023;PMS5003;59889;50.700;5.440;2022-12-05T15:03:31;14;14;
72023;PMS5003;59889;50.700;5.440;2022-12-05T15:05:56;12;12;
72023;PMS5003;59889;50.700;5.440;2022-12-05T15:08:21;13;13;
72023;PMS5003;59889;50.700;5.440;2022-12-05T15:10:46;15;14;
72023;PMS5003;59889;50.700;5.440;2022-12-05T15:13:12;14;12;
72023;PMS5003;59889;50.700;5.440;2022-12-05T15:15:40;12;12;
72023;PMS5003;59889;50.700;5.440;2022-12-05T15:18:07;12;12;
72023;PMS5003;59889;50.700;5.440;2022-12-05T15:20:29;14;14;
72023;PMS5003;59889;50.700;5.440;2022-12-05T15:22:52;13;13;
72023;PMS5003;59889;50.700;5.440;2022-12-05T15:25:20;13;13;
72023;PMS5003;59889;50.700;5.440;2022-12-05T15:32:33;11;11;
72023;PMS5003;59889;50.700;5.440;2022-12-05T15:34:59;13;13;
72023;PMS5003;59889;50.700;5.440;2022-12-05T15:37:24;15;13;
72023;PMS5003;59889;50.700;5.440;2022-12-05T15:39:49;15;15;
72023;PMS5003;59889;50.700;5.440;2022-12-05T15:42:13;13;12;
72023;PMS5003;59889;50.700;5.440;2022-12-05T15:44:38;15;14;
72023;PMS5003;59889;50.700;5.440;2022-12-05T15:47:04;12;11;
72023;PMS5003;59889;50.700;5.440;2022-12-05T15:49:30;14;13;
72023;PMS5003;59889;50.700;5.440;2022-12-05T15:51:55;15;13;
72023;PMS5003;59889;50.700;5.440;2022-12-05T15:54:21;14;13;
72023;PMS5003;59889;50.700;5.440;2022-12-05T15:56:45;15;13;
72023;PMS5003;59889;50.700;5.440;2022-12-05T15:59:11;16;15;
72023;PMS5003;59889;50.700;5.440;2022-12-05T16:01:37;13;13;
72023;PMS5003;59889;50.700;5.440;2022-12-05T16:04:00;14;13;
72023;PMS5003;59889;50.700;5.440;2022-12-05T16:06:26;13;13;
72023;PMS5003;59889;50.700;5.440;2022-12-05T16:08:51;13;12;
72023;PMS5003;59889;50.700;5.440;2022-12-05T16:11:16;15;14;
72023;PMS5003;59889;50.700;5.440;2022-12-05T16:13:42;15;15;
72023;PMS5003;59889;50.700;5.440;2022-12-05T16:16:06;14;13;
72023;PMS5003;59889;50.700;5.440;2022-12-05T16:18:32;16;16;
72023;PMS5003;59889;50.700;5.440;2022-12-05T16:20:57;16;13;
72023;PMS5003;59889;50.700;5.440;2022-12-05T16:23:25;13;13;
72023;PMS5003;59889;50.700;5.440;2022-12-05T16:25:47;11;11;
72023;PMS5003;59889;50.700;5.440;2022-12-05T16:28:14;16;15;
72023;PMS5003;59889;50.700;5.440;2022-12-05T16:30:38;12;12;
72023;PMS5003;59889;50.700;5.440;2022-12-05T16:33:03;13;13;
72023;PMS5003;59889;50.700;5.440;2022-12-05T16:35:30;14;13;
72023;PMS5003;59889;50.700;5.440;2022-12-05T16:40:19;16;15;